This is the latest recevied weather packets stored in our database for station/object KJ5SC. If no packets are shown the sender has not sent any weather packets the latest 10 day(s).
| Time | Temp. | Humidity | Pressure | Rain* | Wind** | Luminosity | Snow |
|---|---|---|---|---|---|---|---|
| 1787945188 | 36.67° C | 49% | 1018 hPa | 0 mm | - | 858 W/m² | - |
| 1787944886 | 35.56° C | 52% | 1018.1 hPa | 0 mm | - | 823 W/m² | - |
| 1787944585 | 35.56° C | 51% | 1018.4 hPa | 0 mm | - | 864 W/m² | - |
| 1787944281 | 35.56° C | 52% | 1018.5 hPa | 0 mm | - | 203 W/m² | - |
| 1787943981 | 36.11° C | 50% | 1018.6 hPa | 0 mm | - | 160 W/m² | - |
| 1787943678 | 35.56° C | 53% | 1018.8 hPa | 0 mm | - | 851 W/m² | - |
| 1787943378 | 36.11° C | 53% | 1018.8 hPa | 0 mm | - | 160 W/m² | - |
| 1787943073 | 35.56° C | 53% | 1018.9 hPa | 0 mm | - | 850 W/m² | - |
| 1787942768 | 36.11° C | 52% | 1019.3 hPa | 0 mm | - | 911 W/m² | - |
| 1787942463 | 36.11° C | 50% | 1019.1 hPa | 0 mm | - | 860 W/m² | - |
| 1787942163 | 36.11° C | 53% | 1019.3 hPa | 0 mm | - | 706 W/m² | - |
| 1787941858 | 36.11° C | 52% | 1019.2 hPa | 0 mm | - | 831 W/m² | - |
| 1787941557 | 35.56° C | 53% | 1019.3 hPa | 0 mm | - | 824 W/m² | - |
| 1787941252 | 35° C | 54% | 1019.5 hPa | 0 mm | - | 228 W/m² | - |
| 1787940951 | 35° C | 54% | 1019.6 hPa | 0 mm | - | 852 W/m² | - |
| 1787940650 | 35° C | 54% | 1019.5 hPa | 0 mm | - | 171 W/m² | - |
| 1787940349 | 35.56° C | 53% | 1019.5 hPa | 0 mm | - | 173 W/m² | - |
| 1787940049 | 35.56° C | 54% | 1019.6 hPa | 0 mm | - | 566 W/m² | - |
| 1787939748 | 35.56° C | 53% | 1019.6 hPa | 0 mm | - | 181 W/m² | - |
| 1787939443 | 35.56° C | 54% | 1019.9 hPa | 0 mm | - | 792 W/m² | - |
| 1787939138 | 35.56° C | 54% | 1019.8 hPa | 0 mm | - | 774 W/m² | - |
| 1787938837 | 35.56° C | 53% | 1019.9 hPa | 0 mm | - | 763 W/m² | - |
| 1787938532 | 35° C | 55% | 1019.9 hPa | 0 mm | - | 767 W/m² | - |
| 1787938228 | 35° C | 54% | 1020.1 hPa | 0 mm | - | 773 W/m² | - |
| 1787937923 | 35° C | 55% | 1020.2 hPa | 0 mm | - | 761 W/m² | - |
* Rain latest hour (hover to see other rain measurements)
** Current wind speed in m/s (hover to see current wind gust speed)